Time;durP1;ratioP1;P1;durP2;ratioP2;P2;SDS_P1;SDS_P2;PMS_P1;PMS_P2;Temp;Humidity;BMP_temperature;BMP_pressure;BME280_temperature;BME280_humidity;BME280_pressure;Samples;Min_cycle;Max_cycle;Signal;HPM_P1;HPM_P2
2023/11/23 00:01:14;;;;;;;20.23;9.77;;;;;;;-145.69;58.55;52400.81;5072971;28;20221;-79
2023/11/23 00:03:46;;;;;;;18.97;9.60;;;;;;;-145.69;58.63;52315.66;5073377;28;20294;-80
2023/11/23 00:06:22;;;;;;;20.03;9.57;;;;;;;-145.69;58.38;52377.06;5073315;28;20207;-79
2023/11/23 00:08:54;;;;;;;19.27;9.10;;;;;;;-145.69;58.23;52398.84;5111899;28;20231;-79
2023/11/23 00:11:20;;;;;;;17.43;9.40;;;;;;;-145.69;58.05;52373.09;5113691;28;20204;-79
2023/11/23 00:13:49;;;;;;;16.63;9.37;;;;;;;-145.69;58.41;52394.88;5113586;28;20205;-79
2023/11/23 00:16:24;;;;;;;17.07;8.73;;;;;;;-145.69;58.17;52400.81;5113729;28;20201;-80
2023/11/23 00:18:53;;;;;;;16.47;9.00;;;;;;;-145.69;57.96;52357.25;5113674;28;20364;-79
2023/11/23 00:21:19;;;;;;;14.63;8.10;;;;;;;-145.69;58.25;52402.78;5113662;28;20229;-79
2023/11/23 00:23:49;;;;;;;17.87;9.33;;;;;;;-145.69;58.11;52369.13;5113215;28;20533;-79
2023/11/23 00:26:16;;;;;;;18.57;9.57;;;;;;;-145.69;58.29;52351.31;5113458;28;20284;-79
2023/11/23 00:28:42;;;;;;;15.20;8.77;;;;;;;-145.69;58.21;52359.22;5113376;28;20692;-79
2023/11/23 00:31:14;;;;;;;16.40;8.87;;;;;;;-145.69;57.88;52375.06;5113518;28;20201;-79
2023/11/23 00:33:45;;;;;;;18.23;9.50;;;;;;;-145.69;58.20;52388.94;5113444;28;20205;-79
2023/11/23 00:36:13;;;;;;;16.57;9.73;;;;;;;-145.69;58.28;52351.31;5113642;28;20686;-79
2023/11/23 00:38:42;;;;;;;15.03;8.77;;;;;;;-145.69;58.23;52347.34;5112307;28;20250;-79
2023/11/23 00:41:10;;;;;;;15.93;8.77;;;;;;;-145.69;58.21;52381.00;5113408;28;20228;-79
2023/11/23 00:43:37;;;;;;;15.07;8.67;;;;;;;-145.69;58.32;52377.06;5113309;28;20197;-79
2023/11/23 00:46:05;;;;;;;16.90;9.67;;;;;;;-145.69;58.53;52339.44;5113464;28;20640;-79
2023/11/23 00:48:31;;;;;;;23.60;10.27;;;;;;;-145.69;58.86;52369.13;5113389;28;20284;-79
2023/11/23 00:51:01;;;;;;;16.03;9.53;;;;;;;-145.69;58.48;52404.78;5113264;28;20212;-79
2023/11/23 00:53:32;;;;;;;16.17;8.57;;;;;;;-145.69;58.67;52349.31;5113138;28;20194;-79
2023/11/23 00:56:01;;;;;;;16.03;8.83;;;;;;;-145.69;58.41;52396.84;5113359;28;20209;-79
2023/11/23 00:58:28;;;;;;;16.03;9.00;;;;;;;-145.69;58.56;52355.28;5113225;28;20193;-79
2023/11/23 01:00:55;;;;;;;17.43;9.20;;;;;;;-145.69;58.75;52373.09;5113044;28;20691;-79
2023/11/23 01:03:23;;;;;;;16.97;9.13;;;;;;;-145.69;58.94;52396.84;5112833;28;20652;-79
2023/11/23 01:05:53;;;;;;;17.17;9.23;;;;;;;-145.69;59.11;52381.00;5113053;28;20198;-79
2023/11/23 01:08:22;;;;;;;19.03;9.23;;;;;;;-145.69;58.73;52381.00;5112267;28;20233;-79
2023/11/23 01:10:53;;;;;;;20.90;8.27;;;;;;;-145.69;59.23;52349.31;5113101;28;20208;-79
2023/11/23 01:13:20;;;;;;;15.57;8.40;;;;;;;-145.69;59.44;52365.16;5107701;28;20193;-79
2023/11/23 01:15:48;;;;;;;14.33;8.60;;;;;;;-145.69;59.44;52384.97;5092669;28;20664;-78
2023/11/23 01:18:24;;;;;;;15.33;8.30;;;;;;;-145.69;59.40;52349.31;5092655;28;20627;-78
2023/11/23 01:20:51;;;;;;;16.77;8.67;;;;;;;-145.69;59.01;52341.41;5092586;28;20581;-78
2023/11/23 01:23:19;;;;;;;15.50;8.53;;;;;;;-145.69;59.29;52400.81;5102114;28;20208;-78
2023/11/23 01:25:49;;;;;;;15.53;8.00;;;;;;;-145.69;59.11;52321.59;5112247;28;20197;-79
2023/11/23 01:28:16;;;;;;;14.83;9.13;;;;;;;-145.69;59.18;52373.09;5112939;28;20632;-79
2023/11/23 01:30:47;;;;;;;15.97;8.10;;;;;;;-145.69;59.33;52396.84;5112667;28;20656;-79
2023/11/23 01:33:14;;;;;;;14.73;7.70;;;;;;;-145.69;59.18;52365.16;5092581;28;20198;-79
2023/11/23 01:35:41;;;;;;;17.70;8.70;;;;;;;-145.69;59.21;52379.03;5092659;28;20202;-79
2023/11/23 01:38:09;;;;;;;18.27;9.20;;;;;;;-145.69;59.35;52408.75;5092279;28;20209;-79
2023/11/23 01:40:41;;;;;;;17.47;8.67;;;;;;;-145.69;59.11;52373.09;5092525;28;20198;-78
2023/11/23 01:43:10;;;;;;;14.77;8.30;;;;;;;-145.69;59.35;52361.22;5092227;28;20287;-79
2023/11/23 01:45:39;;;;;;;16.43;8.23;;;;;;;-145.69;59.70;52381.00;5092577;28;20255;-79
2023/11/23 01:48:09;;;;;;;15.37;8.23;;;;;;;-145.69;59.71;52361.22;5092243;28;20553;-79
2023/11/23 01:50:40;;;;;;;17.03;8.13;;;;;;;-145.69;59.60;52357.25;5096232;28;20269;-79
2023/11/23 01:53:08;;;;;;;16.37;9.23;;;;;;;-145.69;60.15;52381.00;5106204;28;20225;-79
2023/11/23 01:55:35;;;;;;;15.80;8.23;;;;;;;-145.69;59.81;52388.94;5120367;28;20193;-79
2023/11/23 01:58:06;;;;;;;16.57;8.30;;;;;;;-145.69;60.12;52375.06;5118400;28;20292;-79
2023/11/23 02:00:37;;;;;;;15.03;8.10;;;;;;;-145.69;59.67;52400.81;5116496;28;20209;-79
2023/11/23 02:03:06;;;;;;;15.30;8.07;;;;;;;-145.69;59.36;52363.19;5115969;28;20290;-79
2023/11/23 02:05:35;;;;;;;16.40;8.23;;;;;;;-145.69;59.71;52388.94;5116382;28;20205;-79
2023/11/23 02:08:07;;;;;;;15.10;8.53;;;;;;;-145.69;59.29;52369.13;5116127;28;20233;-79
2023/11/23 02:10:33;;;;;;;16.43;8.20;;;;;;;-145.69;59.64;52365.16;5116210;27;20202;-79
2023/11/23 02:13:08;;;;;;;14.60;8.17;;;;;;;-145.69;59.99;52416.66;5115933;28;20571;-79
2023/11/23 02:15:36;;;;;;;16.40;8.87;;;;;;;-145.69;59.57;52371.13;5115883;28;20250;-79
2023/11/23 02:18:06;;;;;;;15.43;8.27;;;;;;;-145.69;59.90;52367.16;5115981;28;20204;-78
2023/11/23 02:20:33;;;;;;;18.00;8.07;;;;;;;-145.69;59.91;52375.06;5115376;28;20202;-78
2023/11/23 02:23:00;;;;;;;15.80;8.43;;;;;;;-145.69;59.52;52404.78;5117401;27;20231;-79
2023/11/23 02:25:28;;;;;;;17.10;8.60;;;;;;;-145.69;59.69;52406.75;5115743;28;20653;-79
2023/11/23 02:28:05;;;;;;;15.20;8.23;;;;;;;-145.69;60.09;52396.84;5115851;28;20201;-79
2023/11/23 02:30:31;;;;;;;17.47;8.33;;;;;;;-145.69;59.79;52400.81;5115772;28;20734;-79
2023/11/23 02:33:01;;;;;;;18.57;8.20;;;;;;;-145.69;60.29;52400.81;5115997;28;20259;-79
2023/11/23 02:35:27;;;;;;;17.80;8.53;;;;;;;-145.69;59.69;52377.06;5115503;28;20194;-79
2023/11/23 02:37:56;;;;;;;15.77;7.93;;;;;;;-145.69;59.87;52418.63;5115641;28;20207;-79
2023/11/23 02:40:24;;;;;;;15.67;8.07;;;;;;;-145.69;60.18;52406.75;5115331;28;20201;-79
2023/11/23 02:42:56;;;;;;;14.90;7.57;;;;;;;-145.69;59.64;52369.13;5115514;28;20236;-79
2023/11/23 02:45:27;;;;;;;12.37;6.63;;;;;;;-145.69;60.21;52388.94;5114750;28;20672;-79
2023/11/23 02:47:56;;;;;;;16.07;8.13;;;;;;;-145.69;60.39;52406.75;5115380;28;20198;-79
2023/11/23 02:50:31;;;;;;;16.23;7.93;;;;;;;-145.69;60.60;52369.13;5115253;28;20243;-79
2023/11/23 02:52:58;;;;;;;13.47;7.00;;;;;;;-145.69;60.41;52388.94;5115142;28;20296;-80
2023/11/23 02:55:24;;;;;;;14.80;7.40;;;;;;;-145.69;60.88;52404.78;5115345;28;20667;-80
2023/11/23 02:57:52;;;;;;;12.73;6.57;;;;;;;-145.69;60.93;52373.09;5115172;28;20678;-79
2023/11/23 03:00:19;;;;;;;17.17;7.73;;;;;;;-145.69;61.67;52377.06;5114948;28;20225;-79
2023/11/23 03:02:47;;;;;;;14.17;7.30;;;;;;;-145.69;61.77;52402.78;5114428;28;20557;-80
2023/11/23 03:05:19;;;;;;;13.50;7.13;;;;;;;-145.69;62.16;52392.91;5115081;28;20207;-79
2023/11/23 03:07:51;;;;;;;15.03;8.03;;;;;;;-145.69;62.32;52412.69;5114820;28;20225;-79
2023/11/23 03:10:20;;;;;;;15.07;7.97;;;;;;;-145.69;62.75;52384.97;5114998;28;20720;-80
2023/11/23 03:12:48;;;;;;;15.77;7.90;;;;;;;-145.69;62.50;52361.22;5114861;28;20652;-80
2023/11/23 03:15:16;;;;;;;14.00;7.03;;;;;;;-145.69;62.48;52386.97;5114917;28;20197;-79
2023/11/23 03:17:44;;;;;;;15.17;7.70;;;;;;;-145.69;63.25;52408.75;5104302;28;20301;-79
2023/11/23 03:20:12;;;;;;;15.87;8.43;;;;;;;-145.69;63.20;52375.06;5094451;28;20209;-80
2023/11/23 03:22:39;;;;;;;17.40;8.10;;;;;;;-145.69;63.03;52420.63;5096741;28;20254;-79
2023/11/23 03:25:07;;;;;;;15.07;7.33;;;;;;;-145.69;62.76;52396.84;5114593;28;20197;-80
2023/11/23 03:27:36;;;;;;;16.10;7.93;;;;;;;-145.69;62.92;52373.09;5114643;28;20241;-79
2023/11/23 03:30:04;;;;;;;13.67;7.23;;;;;;;-145.69;63.08;52400.81;5114442;28;20220;-80
2023/11/23 03:32:32;;;;;;;15.50;7.83;;;;;;;-145.69;63.49;52396.84;5114518;28;20278;-80
2023/11/23 03:34:59;;;;;;;16.93;8.47;;;;;;;-145.69;63.54;52412.69;5114497;28;20193;-80
2023/11/23 03:37:28;;;;;;;16.97;8.27;;;;;;;-145.69;63.23;52414.69;5114264;28;20201;-79
2023/11/23 03:39:59;;;;;;;15.50;7.10;;;;;;;-145.69;63.51;52428.53;5114421;28;20204;-80
2023/11/23 03:42:25;;;;;;;16.13;8.27;;;;;;;-145.69;63.63;52412.69;5114100;28;20687;-79
2023/11/23 03:45:04;;;;;;;17.17;7.80;;;;;;;-145.69;63.89;52412.69;5127331;27;20201;-79
2023/11/23 03:47:35;;;;;;;17.27;8.20;;;;;;;-145.69;63.67;52404.78;5134261;27;20196;-79
2023/11/23 03:50:01;;;;;;;15.77;7.27;;;;;;;-145.69;63.42;52402.78;5134747;27;20291;-79
2023/11/23 03:52:30;;;;;;;20.97;8.63;;;;;;;-145.69;64.78;52412.69;5134171;27;20289;-79
2023/11/23 03:54:59;;;;;;;18.37;8.17;;;;;;;-145.69;64.48;52390.91;5093917;28;20255;-79
2023/11/23 03:57:25;;;;;;;15.53;7.50;;;;;;;-145.69;64.22;52414.69;5093823;28;20202;-79
2023/11/23 03:59:56;;;;;;;15.23;6.97;;;;;;;-145.69;64.40;52404.78;5112897;28;20207;-79
2023/11/23 04:02:25;;;;;;;12.90;6.57;;;;;;;-145.69;64.88;52408.75;5113991;28;20257;-79
2023/11/23 04:04:53;;;;;;;15.73;6.70;;;;;;;-145.69;64.86;52422.59;5113721;28;20193;-80
2023/11/23 04:07:19;;;;;;;14.47;6.87;;;;;;;-145.69;64.86;52404.78;5113827;27;20236;-79
2023/11/23 04:09:46;;;;;;;13.33;6.67;;;;;;;-145.69;64.16;52392.91;5113751;28;20200;-79
2023/11/23 04:12:12;;;;;;;10.57;5.43;;;;;;;-145.69;64.39;52424.59;5113776;28;20229;-79
2023/11/23 04:14:39;;;;;;;12.03;5.30;;;;;;;-145.69;65.51;52402.78;5124995;27;20199;-79
2023/11/23 04:17:10;;;;;;;11.87;6.43;;;;;;;-145.69;65.18;52392.91;5134146;27;20200;-79
2023/11/23 04:19:41;;;;;;;14.30;6.93;;;;;;;-145.69;64.72;52392.91;5134054;27;20327;-78
2023/11/23 04:22:12;;;;;;;15.43;6.17;;;;;;;-145.69;64.50;52420.63;5133938;27;20690;-79
2023/11/23 04:24:48;;;;;;;13.47;6.63;;;;;;;-145.69;65.95;52390.91;5115520;27;20276;-79
2023/11/23 04:27:19;;;;;;;14.13;6.17;;;;;;;-145.69;65.47;52400.81;5113712;28;20208;-79
2023/11/23 04:29:46;;;;;;;16.07;6.93;;;;;;;-145.69;65.88;52426.56;5113544;28;20648;-79
2023/11/23 04:32:12;;;;;;;15.87;5.83;;;;;;;-145.69;65.98;52388.94;5113467;28;20208;-80
2023/11/23 04:34:39;;;;;;;11.93;5.67;;;;;;;-145.69;66.01;52428.53;5113801;28;20197;-80
2023/11/23 04:37:05;;;;;;;14.03;6.47;;;;;;;-145.69;65.86;52400.81;5113575;28;20247;-79
2023/11/23 04:39:36;;;;;;;14.03;6.30;;;;;;;-145.69;65.24;52420.63;5113447;28;20201;-79
2023/11/23 04:42:11;;;;;;;11.00;5.37;;;;;;;-145.69;65.83;52404.78;5113469;28;20197;-80
2023/11/23 04:44:38;;;;;;;17.70;7.03;;;;;;;-145.69;65.99;52375.06;5113709;28;20654;-79
2023/11/23 04:47:05;;;;;;;14.37;6.23;;;;;;;-145.69;65.99;52404.78;5113534;28;20623;-79
2023/11/23 04:49:32;;;;;;;14.97;6.70;;;;;;;-145.69;65.69;52406.75;5113361;28;20710;-80
2023/11/23 04:51:58;;;;;;;10.97;5.67;;;;;;;-145.69;65.76;52408.75;5113335;28;20201;-79
2023/11/23 04:54:27;;;;;;;13.33;6.60;;;;;;;-145.69;66.90;52424.59;5113090;28;20197;-80
2023/11/23 04:56:56;;;;;;;14.53;6.70;;;;;;;-145.69;66.24;52377.06;5113257;28;20207;-79
2023/11/23 04:59:22;;;;;;;13.70;5.83;;;;;;;-145.69;66.63;52384.97;5113561;28;20201;-79
2023/11/23 05:01:50;;;;;;;13.47;6.90;;;;;;;-145.69;67.66;52418.63;5113466;28;20208;-80
2023/11/23 05:04:17;;;;;;;16.57;7.10;;;;;;;-145.69;66.85;52396.84;5113155;28;20197;-79
2023/11/23 05:06:43;;;;;;;15.97;7.43;;;;;;;-145.69;66.99;52416.66;5113056;28;20197;-80
2023/11/23 05:09:10;;;;;;;18.53;7.93;;;;;;;-145.69;66.48;52414.69;5113504;28;20656;-80
2023/11/23 05:11:36;;;;;;;18.27;7.50;;;;;;;-145.69;66.41;52442.41;5113112;28;20205;-79
2023/11/23 05:14:10;;;;;;;16.47;7.77;;;;;;;-145.69;66.33;52404.78;5111287;28;20206;-80
2023/11/23 05:16:37;;;;;;;12.30;6.50;;;;;;;-145.69;66.18;52420.63;5103112;28;20292;-80
2023/11/23 05:19:04;;;;;;;13.80;6.97;;;;;;;-145.69;66.18;52424.59;5113022;28;20567;-80
2023/11/23 05:21:32;;;;;;;14.67;7.23;;;;;;;-145.69;66.18;52394.88;5113147;28;20605;-80
2023/11/23 05:23:59;;;;;;;14.97;6.33;;;;;;;-145.69;65.91;52404.78;5112707;28;20232;-80
2023/11/23 05:26:26;;;;;;;14.10;6.77;;;;;;;-145.69;66.14;52404.78;5117219;28;20201;-81
2023/11/23 05:28:55;;;;;;;14.93;6.37;;;;;;;-145.69;66.39;52420.63;5117171;28;20201;-80
2023/11/23 05:31:23;;;;;;;13.10;6.50;;;;;;;-145.69;66.55;52426.56;5116955;28;20609;-79
2023/11/23 05:33:50;;;;;;;12.70;5.63;;;;;;;-145.69;66.52;52406.75;5117025;28;20667;-80
2023/11/23 05:36:16;;;;;;;14.67;6.20;;;;;;;-145.69;65.83;52422.59;5116798;28;20202;-79
2023/11/23 05:38:43;;;;;;;14.30;6.50;;;;;;;-145.69;66.32;52440.44;5116544;28;20602;-79
2023/11/23 05:41:15;;;;;;;14.10;6.07;;;;;;;-145.69;66.15;52404.78;5116611;28;20186;-79
2023/11/23 05:43:43;;;;;;;15.73;6.50;;;;;;;-145.69;66.21;52365.16;5116436;28;20263;-80
2023/11/23 05:46:10;;;;;;;13.83;6.20;;;;;;;-145.69;66.26;52392.91;5116395;28;20197;-80
2023/11/23 05:48:38;;;;;;;12.17;5.40;;;;;;;-145.69;67.44;52430.53;5116566;28;20292;-80
2023/11/23 05:51:05;;;;;;;12.50;5.43;;;;;;;-145.69;67.87;52414.69;5116374;28;20556;-80
2023/11/23 05:53:31;;;;;;;12.23;5.47;;;;;;;-145.69;68.29;52432.50;5116292;28;20284;-80
2023/11/23 05:55:58;;;;;;;13.10;6.17;;;;;;;-145.69;67.71;52448.34;5116378;28;20709;-80
2023/11/23 05:58:30;;;;;;;15.07;5.83;;;;;;;-145.69;68.10;52402.78;5116288;28;20195;-80
2023/11/23 06:00:57;;;;;;;14.70;6.33;;;;;;;-145.69;68.37;52400.81;5115904;27;20312;-80
2023/11/23 06:03:23;;;;;;;15.03;6.87;;;;;;;-145.69;67.23;52408.75;5115788;28;20221;-80
2023/11/23 06:05:51;;;;;;;15.57;7.03;;;;;;;-145.69;66.67;52388.94;5115884;28;20254;-80
2023/11/23 06:08:21;;;;;;;13.70;5.67;;;;;;;-145.69;66.72;52369.13;5115844;28;20236;-80
2023/11/23 06:10:47;;;;;;;11.47;5.37;;;;;;;-145.69;66.73;52440.44;5116327;28;20203;-80
2023/11/23 06:13:20;;;;;;;13.50;6.07;;;;;;;-145.69;66.68;52446.38;5116143;28;20221;-80
2023/11/23 06:15:46;;;;;;;12.77;5.50;;;;;;;-145.69;66.60;52396.84;5115822;28;20201;-80
2023/11/23 06:18:26;;;;;;;11.60;5.73;;;;;;;-145.69;66.87;52418.63;5115701;28;20196;-80
2023/11/23 06:20:54;;;;;;;9.53;5.13;;;;;;;-145.69;67.77;52402.78;5115892;28;20197;-80
2023/11/23 06:23:22;;;;;;;11.67;5.63;;;;;;;-145.69;67.16;52398.84;5115753;28;20217;-80
2023/11/23 06:25:49;;;;;;;16.33;5.97;;;;;;;-145.69;67.72;52408.75;5115918;28;20204;-80
2023/11/23 06:28:18;;;;;;;11.00;5.50;;;;;;;-145.69;67.11;52406.75;5115884;28;20233;-80
2023/11/23 06:30:45;;;;;;;17.53;5.77;;;;;;;-145.69;66.63;52426.56;5115684;28;20204;-80
2023/11/23 06:33:11;;;;;;;13.17;5.50;;;;;;;-145.69;66.69;52416.66;5116112;28;20208;-80
2023/11/23 06:35:38;;;;;;;12.60;5.80;;;;;;;-145.69;66.90;52416.66;5114825;28;20208;-80
2023/11/23 06:38:06;;;;;;;13.70;4.87;;;;;;;-145.69;67.17;52406.75;5115369;28;20247;-80
2023/11/23 06:40:36;;;;;;;11.80;5.43;;;;;;;-145.69;67.38;52392.91;5115603;28;20201;-80
2023/11/23 06:43:03;;;;;;;13.43;6.00;;;;;;;-145.69;66.75;52424.59;5114148;28;20274;-79
2023/11/23 06:45:29;;;;;;;10.93;5.17;;;;;;;-145.69;66.08;52462.22;5114925;28;20201;-80
2023/11/23 06:47:56;;;;;;;10.37;4.70;;;;;;;-145.69;66.25;52456.28;5115298;28;20560;-80
2023/11/23 06:50:22;;;;;;;11.27;5.07;;;;;;;-145.69;67.98;52448.34;5115408;28;20198;-80
2023/11/23 06:52:49;;;;;;;10.20;5.20;;;;;;;-145.69;68.23;52396.84;5115311;28;20211;-80
2023/11/23 06:55:19;;;;;;;8.80;4.30;;;;;;;-145.69;67.98;52414.69;5114721;28;20197;-81
2023/11/23 06:57:48;;;;;;;9.80;4.90;;;;;;;-145.69;67.08;52418.63;5115208;28;20652;-80
2023/11/23 07:00:22;;;;;;;10.97;5.40;;;;;;;-145.69;67.30;52416.66;5114997;28;20202;-81
2023/11/23 07:02:50;;;;;;;9.23;4.10;;;;;;;-145.69;67.25;52452.31;5115402;28;20310;-81
2023/11/23 07:05:16;;;;;;;7.60;4.17;;;;;;;-145.69;68.18;52434.47;5115194;28;20675;-81
2023/11/23 07:07:52;;;;;;;11.37;5.20;;;;;;;-145.69;67.43;52428.53;5114983;28;20230;-80
2023/11/23 07:10:22;;;;;;;9.87;4.67;;;;;;;-145.69;66.78;52404.78;5115198;28;20208;-81
2023/11/23 07:12:49;;;;;;;11.37;4.40;;;;;;;-145.69;67.32;52406.75;5115213;28;20205;-81
2023/11/23 07:15:19;;;;;;;7.67;3.90;;;;;;;-145.69;67.44;52416.66;5114866;28;20266;-81
2023/11/23 07:17:46;;;;;;;7.80;3.57;;;;;;;-145.69;67.63;52424.59;5115157;28;20551;-81
2023/11/23 07:20:14;;;;;;;6.37;3.23;;;;;;;-145.69;67.46;52430.53;5115232;28;20197;-81
2023/11/23 07:22:43;;;;;;;10.87;4.40;;;;;;;-145.69;67.65;52420.63;5099219;28;20661;-81
2023/11/23 07:25:13;;;;;;;8.17;3.60;;;;;;;-145.69;67.48;52444.38;5112447;28;20198;-81
2023/11/23 07:27:41;;;;;;;8.83;3.87;;;;;;;-145.69;68.06;52438.44;5114946;27;20572;-81
2023/11/23 07:30:09;;;;;;;12.03;4.00;;;;;;;-145.69;67.51;52416.66;5114550;28;20721;-80
2023/11/23 07:32:35;;;;;;;7.73;3.63;;;;;;;-145.69;67.10;52438.44;5114587;28;20246;-80
2023/11/23 07:35:08;;;;;;;6.33;3.53;;;;;;;-145.69;67.66;52452.31;5114493;28;20635;-81
2023/11/23 07:37:34;;;;;;;8.50;3.47;;;;;;;-145.69;67.67;52424.59;5114642;28;20198;-81
2023/11/23 07:40:04;;;;;;;6.40;3.90;;;;;;;-145.69;67.37;52412.69;5114689;28;20197;-81
2023/11/23 07:42:31;;;;;;;6.63;3.20;;;;;;;-145.69;67.34;52410.72;5114502;28;20244;-80
2023/11/23 07:44:59;;;;;;;6.67;3.43;;;;;;;-145.69;67.13;52422.59;5113638;28;20225;-81
2023/11/23 07:47:25;;;;;;;7.03;3.50;;;;;;;-145.69;67.45;52432.50;5113317;28;20675;-81
2023/11/23 07:49:52;;;;;;;8.53;3.70;;;;;;;-145.69;67.50;52428.53;5114000;28;20208;-80
2023/11/23 07:52:19;;;;;;;7.47;3.93;;;;;;;-145.69;67.53;52428.53;5114108;28;20203;-80
2023/11/23 07:54:45;;;;;;;7.97;3.83;;;;;;;-145.69;67.70;52476.06;5113595;28;20731;-81
2023/11/23 07:57:12;;;;;;;7.53;3.73;;;;;;;-145.69;67.49;52426.56;5113712;28;20201;-80
2023/11/23 07:59:39;;;;;;;15.97;5.20;;;;;;;-145.69;67.97;52373.09;5114011;28;20298;-79
2023/11/23 08:02:06;;;;;;;9.00;4.27;;;;;;;-145.69;67.97;52420.63;5113907;28;20822;-81
2023/11/23 08:04:33;;;;;;;9.27;4.63;;;;;;;-145.69;67.84;52406.75;5113767;28;20240;-80
2023/11/23 08:06:59;;;;;;;9.97;4.47;;;;;;;-145.69;67.70;52428.53;5112928;28;20308;-80
2023/11/23 08:09:26;;;;;;;11.27;4.60;;;;;;;-145.69;68.12;52442.41;5113852;28;20216;-79
2023/11/23 08:11:53;;;;;;;9.03;4.27;;;;;;;-145.69;67.70;52426.56;5113979;28;20228;-80
2023/11/23 08:14:19;;;;;;;7.10;3.63;;;;;;;-145.69;67.03;52406.75;5113073;28;20530;-80
2023/11/23 08:16:46;;;;;;;10.73;4.50;;;;;;;-145.69;67.80;52410.72;5113267;28;20201;-80
2023/11/23 08:19:14;;;;;;;10.60;4.70;;;;;;;-145.69;67.81;52428.53;5113591;28;20209;-80
2023/11/23 08:21:41;;;;;;;8.97;3.80;;;;;;;-145.69;67.62;52400.81;5113457;28;20209;-80
2023/11/23 08:24:09;;;;;;;7.87;3.53;;;;;;;-145.69;67.74;52412.69;5113391;28;20217;-79
2023/11/23 08:26:36;;;;;;;5.57;3.00;;;;;;;-145.69;67.79;52438.44;5113646;28;20201;-79
2023/11/23 08:29:04;;;;;;;8.17;3.10;;;;;;;-145.69;67.60;52386.97;5113552;28;20352;-80
2023/11/23 08:31:31;;;;;;;4.60;3.00;;;;;;;-145.69;67.68;52414.69;5113224;28;20656;-80
2023/11/23 08:33:59;;;;;;;4.73;2.70;;;;;;;-145.69;67.59;52422.59;5113501;28;20193;-79
2023/11/23 08:36:32;;;;;;;4.07;2.27;;;;;;;-145.69;67.28;52388.94;5113494;28;20213;-80
2023/11/23 08:39:00;;;;;;;3.63;2.20;;;;;;;-145.69;67.05;52404.78;5113185;28;20559;-80
2023/11/23 08:41:28;;;;;;;4.83;2.80;;;;;;;-145.69;66.98;52377.06;5113228;28;20212;-79
2023/11/23 08:43:54;;;;;;;4.10;2.60;;;;;;;-145.69;66.68;52396.84;5113142;27;20225;-79
2023/11/23 08:46:21;;;;;;;4.90;2.97;;;;;;;-145.69;66.82;52424.59;5113553;28;20204;-79
2023/11/23 08:48:47;;;;;;;4.73;2.63;;;;;;;-145.69;66.48;52398.84;5113520;28;20204;-79
2023/11/23 08:51:14;;;;;;;6.17;3.13;;;;;;;-145.69;66.96;52428.53;5113321;28;20667;-78
2023/11/23 08:53:42;;;;;;;6.60;3.37;;;;;;;-145.69;67.30;52396.84;5113060;28;20200;-79
2023/11/23 08:56:08;;;;;;;7.23;3.60;;;;;;;-145.69;67.05;52402.78;5113642;28;20640;-78
2023/11/23 08:58:36;;;;;;;9.32;4.32;;;;;;;-145.69;68.23;52438.44;5112049;28;20427;-78
2023/11/23 09:01:02;;;;;;;5.47;3.40;;;;;;;-145.69;67.23;52452.31;5116459;28;20216;-79
2023/11/23 09:03:29;;;;;;;7.43;3.60;;;;;;;-145.69;67.10;52404.78;5116910;28;20221;-78
2023/11/23 09:05:57;;;;;;;6.70;3.27;;;;;;;-145.69;67.11;52367.16;5117369;28;20223;-78
2023/11/23 09:08:25;;;;;;;6.50;3.30;;;;;;;-145.69;66.63;52377.06;5117182;28;20228;-78
2023/11/23 09:10:54;;;;;;;6.63;3.40;;;;;;;-145.69;66.66;52394.88;5116621;28;20579;-77
2023/11/23 09:13:21;;;;;;;5.60;3.00;;;;;;;-145.69;66.72;52369.13;5117145;28;20563;-77
2023/11/23 09:15:47;;;;;;;4.70;2.93;;;;;;;-145.69;66.11;52424.59;5117194;28;20201;-78
2023/11/23 09:18:14;;;;;;;7.43;3.53;;;;;;;-145.69;65.70;52424.59;5116943;28;20260;-78
2023/11/23 09:20:40;;;;;;;7.20;3.67;;;;;;;-145.69;65.57;52404.78;5117303;28;20296;-78
2023/11/23 09:23:07;;;;;;;12.70;3.37;;;;;;;-145.69;65.06;52432.50;5116835;27;20197;-77
2023/11/23 09:25:33;;;;;;;6.40;3.50;;;;;;;-145.69;65.03;52398.84;5117016;28;20228;-77
2023/11/23 09:28:01;;;;;;;7.83;3.77;;;;;;;-145.69;64.83;52373.09;5099883;28;20248;-77
2023/11/23 09:30:28;;;;;;;6.80;3.80;;;;;;;-145.69;64.89;52402.78;5116388;28;20203;-78
2023/11/23 09:32:55;;;;;;;7.80;4.00;;;;;;;-145.69;64.22;52424.59;5116717;28;20563;-78
2023/11/23 09:35:22;;;;;;;8.47;3.67;;;;;;;-145.69;64.24;52416.66;5116803;28;20607;-78
2023/11/23 09:37:49;;;;;;;9.13;3.83;;;;;;;-145.69;63.85;52396.84;5116825;28;20271;-77
2023/11/23 09:40:18;;;;;;;7.87;3.97;;;;;;;-145.69;64.19;52398.84;5116804;28;20201;-78
2023/11/23 09:42:48;;;;;;;6.40;3.80;;;;;;;-145.69;63.67;52375.06;5116501;28;20189;-78
2023/11/23 09:45:20;;;;;;;10.30;3.83;;;;;;;-145.69;63.83;52379.03;5116702;28;20320;-77
2023/11/23 09:47:49;;;;;;;12.30;5.13;;;;;;;-145.69;63.26;52381.00;5116697;28;20200;-78
2023/11/23 09:50:20;;;;;;;13.40;5.27;;;;;;;-145.69;63.06;52424.59;5116431;27;20205;-78
2023/11/23 09:52:47;;;;;;;17.97;7.27;;;;;;;-145.69;62.93;52369.13;5116419;28;20207;-77
2023/11/23 09:55:16;;;;;;;9.03;4.60;;;;;;;-145.69;63.73;52408.75;5116536;28;20258;-77
2023/11/23 09:57:48;;;;;;;7.37;3.73;;;;;;;-145.69;63.65;52357.25;5115134;28;20206;-78
2023/11/23 10:00:18;;;;;;;7.87;4.37;;;;;;;-145.69;62.96;52355.28;5115931;28;20205;-78
2023/11/23 10:02:49;;;;;;;8.47;4.30;;;;;;;-145.69;63.16;52371.13;5115475;28;20284;-78
2023/11/23 10:05:16;;;;;;;7.37;3.93;;;;;;;-145.69;63.31;52361.22;5114100;28;20252;-77
2023/11/23 10:07:44;;;;;;;9.30;4.07;;;;;;;-145.69;63.03;52402.78;5113946;28;20225;-78
2023/11/23 10:10:11;;;;;;;11.33;4.77;;;;;;;-145.69;62.94;52392.91;5113654;28;20667;-78
2023/11/23 10:12:38;;;;;;;6.27;3.73;;;;;;;-145.69;63.46;52373.09;5093822;28;20193;-77
2023/11/23 10:15:10;;;;;;;7.23;3.30;;;;;;;-145.69;63.55;52388.94;5093585;28;20220;-78
2023/11/23 10:17:38;;;;;;;8.13;3.40;;;;;;;-145.69;63.99;52381.00;5093753;28;20202;-77
2023/11/23 10:20:10;;;;;;;7.80;3.90;;;;;;;-145.69;63.74;52369.13;5095430;28;20209;-77
2023/11/23 10:22:37;;;;;;;7.07;3.60;;;;;;;-145.69;63.41;52394.88;5095962;28;20418;-77
2023/11/23 10:25:05;;;;;;;6.53;3.53;;;;;;;-145.69;63.51;52408.75;5095382;28;20240;-78
2023/11/23 10:27:35;;;;;;;9.23;4.23;;;;;;;-145.69;63.61;52390.91;5095536;28;20198;-78
2023/11/23 10:30:04;;;;;;;10.23;3.33;;;;;;;-145.69;63.61;52392.91;5095479;28;20225;-78
2023/11/23 10:32:33;;;;;;;9.40;3.83;;;;;;;-145.69;63.31;52377.06;5100053;28;20198;-78
2023/11/23 10:35:08;;;;;;;8.90;3.73;;;;;;;-145.69;64.11;52351.31;5115891;28;20239;-78
2023/11/23 10:37:35;;;;;;;8.07;4.27;;;;;;;-145.69;63.47;52365.16;5115724;28;20250;-79
2023/11/23 10:40:05;;;;;;;6.80;3.73;;;;;;;-145.69;63.56;52386.97;5115614;28;20197;-79
2023/11/23 10:42:35;;;;;;;8.10;3.57;;;;;;;-145.69;62.82;52333.47;5115269;28;20198;-79
2023/11/23 10:45:06;;;;;;;6.93;3.43;;;;;;;-145.69;61.41;52365.16;5115371;28;20221;-79
2023/11/23 10:47:37;;;;;;;6.37;3.67;;;;;;;-145.69;58.81;52341.41;5115573;28;20227;-79
2023/11/23 10:50:10;;;;;;;7.03;3.70;;;;;;;-145.69;58.70;52355.28;5115611;28;20201;-79
2023/11/23 10:52:39;;;;;;;4.93;3.10;;;;;;;-145.69;59.00;52341.41;5115471;28;20198;-79
2023/11/23 10:55:06;;;;;;;8.23;3.67;;;;;;;-145.69;57.28;52319.63;5115288;28;20651;-79
2023/11/23 10:57:34;;;;;;;5.33;2.70;;;;;;;-145.69;56.90;52333.47;5115204;28;20697;-79
2023/11/23 11:00:06;;;;;;;6.53;3.50;;;;;;;-145.69;57.02;52349.31;5115465;28;20197;-79
2023/11/23 11:02:33;;;;;;;4.93;2.70;;;;;;;-145.69;56.14;52329.53;5114879;27;20189;-79
2023/11/23 11:05:01;;;;;;;5.17;2.83;;;;;;;-145.69;56.75;52321.59;5115120;28;20229;-79
2023/11/23 11:07:29;;;;;;;4.10;2.70;;;;;;;-145.69;55.92;52341.41;5114758;28;20225;-79
2023/11/23 11:10:01;;;;;;;3.00;2.23;;;;;;;-145.69;55.46;52357.25;5114909;28;20197;-79
2023/11/23 11:12:36;;;;;;;5.10;1.97;;;;;;;-145.69;55.40;52305.75;5115111;28;20600;-79
2023/11/23 11:15:07;;;;;;;2.47;1.30;;;;;;;-145.69;55.77;52333.47;5115174;28;20199;-79
2023/11/23 11:17:38;;;;;;;2.03;1.10;;;;;;;-145.69;55.03;52325.56;5114985;28;20649;-79